createdAt,value
2024-01-31T00:00:39.602Z,11.38
2024-01-31T00:03:06.480Z,10.05
2024-01-31T00:05:33.497Z,9.50
2024-01-31T00:08:00.517Z,10.25
2024-01-31T00:10:27.237Z,9.70
2024-01-31T00:12:54.084Z,9.57
2024-01-31T00:15:20.993Z,8.30
2024-01-31T00:17:47.777Z,7.38
2024-01-31T00:20:14.657Z,9.30
2024-01-31T00:22:41.441Z,8.52
2024-01-31T00:25:08.652Z,8.05
2024-01-31T00:27:35.497Z,8.93
2024-01-31T00:30:02.276Z,5.18
2024-01-31T00:32:28.987Z,13.60
2024-01-31T00:34:55.815Z,9.52
2024-01-31T00:37:22.647Z,7.28
2024-01-31T00:39:49.420Z,5.60
2024-01-31T00:42:16.690Z,6.38
2024-01-31T00:44:44.088Z,6.07
2024-01-31T00:47:11.035Z,6.80
2024-01-31T00:49:38.615Z,8.65
2024-01-31T00:52:06.065Z,5.53
2024-01-31T00:54:32.851Z,7.47
2024-01-31T00:56:59.616Z,8.23
2024-01-31T00:59:26.444Z,7.97
2024-01-31T01:01:53.135Z,7.07
2024-01-31T01:04:19.899Z,8.25
2024-01-31T01:06:46.710Z,16.73
2024-01-31T01:09:13.472Z,8.55
2024-01-31T01:11:40.124Z,8.15
2024-01-31T01:14:07.964Z,11.95
2024-01-31T01:16:34.817Z,9.20
2024-01-31T01:19:02.370Z,8.77
2024-01-31T01:21:29.105Z,6.45
2024-01-31T01:23:55.821Z,5.70
2024-01-31T01:26:22.502Z,8.52
2024-01-31T01:28:49.254Z,7.68
2024-01-31T01:31:16.130Z,7.85
2024-01-31T01:33:42.898Z,11.57
2024-01-31T01:36:09.627Z,6.25
2024-01-31T01:38:37.976Z,7.32
2024-01-31T01:41:08.020Z,7.45
2024-01-31T01:43:34.695Z,11.50
2024-01-31T01:46:13.792Z,8.20
2024-01-31T01:48:42.580Z,12.40
2024-01-31T01:53:39.493Z,10.07
2024-01-31T01:56:10.207Z,11.07
2024-01-31T01:58:38.223Z,7.82
2024-01-31T02:01:05.531Z,6.65
2024-01-31T02:03:32.922Z,10.25
2024-01-31T02:06:01.202Z,12.27
2024-01-31T02:08:28.721Z,6.63
2024-01-31T02:10:55.850Z,8.48
2024-01-31T02:13:23.275Z,8.52
2024-01-31T02:15:57.632Z,13.90
2024-01-31T02:18:26.475Z,7.88
2024-01-31T02:23:19.909Z,9.40
2024-01-31T02:25:46.708Z,8.57
2024-01-31T02:28:13.454Z,8.25
2024-01-31T02:30:40.230Z,8.23
2024-01-31T02:33:07.177Z,9.20
2024-01-31T02:35:35.407Z,5.90
2024-01-31T02:38:02.763Z,10.35
2024-01-31T02:40:32.269Z,6.60
2024-01-31T02:43:00.093Z,10.95
2024-01-31T02:45:29.242Z,8.80
2024-01-31T02:47:56.231Z,9.45
2024-01-31T02:50:23.191Z,11.57
2024-01-31T02:52:50.290Z,10.18
2024-01-31T02:55:17.327Z,10.52
2024-01-31T02:57:44.007Z,8.30
2024-01-31T03:00:13.653Z,9.63
2024-01-31T03:02:44.970Z,9.65
2024-01-31T03:05:13.821Z,9.18
2024-01-31T03:10:08.931Z,8.50
2024-01-31T03:12:35.744Z,10.30
2024-01-31T03:15:03.151Z,10.10
2024-01-31T03:17:36.268Z,8.15
2024-01-31T03:20:07.532Z,9.85
2024-01-31T03:22:36.182Z,10.90
2024-01-31T03:27:30.281Z,9.93
2024-01-31T03:30:02.945Z,10.93
2024-01-31T03:32:35.405Z,7.95
2024-01-31T03:35:02.258Z,8.68
2024-01-31T03:37:29.092Z,14.07
2024-01-31T03:39:55.796Z,9.80
2024-01-31T03:42:22.617Z,11.57
2024-01-31T03:44:49.225Z,9.70
2024-01-31T03:47:15.900Z,11.00
2024-01-31T03:49:42.816Z,8.95
2024-01-31T03:52:09.470Z,8.48
2024-01-31T03:54:36.259Z,10.88
2024-01-31T03:57:02.921Z,8.95
2024-01-31T03:59:29.560Z,9.48
2024-01-31T04:01:56.358Z,6.97
2024-01-31T04:04:23.148Z,9.15
2024-01-31T04:06:50.055Z,9.05
2024-01-31T04:09:16.731Z,6.38
2024-01-31T04:11:43.593Z,6.88
2024-01-31T04:14:10.222Z,8.50
2024-01-31T04:16:36.916Z,7.75
2024-01-31T04:19:03.886Z,8.85
2024-01-31T04:21:30.716Z,4.97
2024-01-31T04:23:57.551Z,7.97
2024-01-31T04:26:24.235Z,9.88
2024-01-31T04:28:50.945Z,10.13
2024-01-31T04:31:17.720Z,7.05
2024-01-31T04:33:44.878Z,7.97
2024-01-31T04:36:11.898Z,11.23
2024-01-31T04:38:38.532Z,12.73
2024-01-31T04:41:05.332Z,9.40
2024-01-31T04:43:32.067Z,7.25
2024-01-31T04:45:59.066Z,5.63
2024-01-31T04:48:26.162Z,7.43
2024-01-31T04:50:52.980Z,8.45
2024-01-31T04:53:19.705Z,9.85
2024-01-31T04:55:46.508Z,8.15
2024-01-31T04:58:15.235Z,11.00
2024-01-31T05:00:42.228Z,9.82
2024-01-31T05:03:09.048Z,10.30
2024-01-31T05:05:36.093Z,9.75
2024-01-31T05:08:02.855Z,9.00
2024-01-31T05:10:29.591Z,9.93
2024-01-31T05:12:56.359Z,10.10
2024-01-31T05:15:23.069Z,7.90
2024-01-31T05:17:49.812Z,12.35
2024-01-31T05:20:16.689Z,9.45
2024-01-31T05:22:44.189Z,7.47
2024-01-31T05:25:11.004Z,10.05
2024-01-31T05:27:37.816Z,9.60
2024-01-31T05:30:05.951Z,9.52
2024-01-31T05:32:32.968Z,8.40
2024-01-31T05:34:59.930Z,8.18
2024-01-31T05:37:26.675Z,6.32
2024-01-31T05:39:53.380Z,8.30
2024-01-31T05:42:20.123Z,8.90
2024-01-31T05:44:46.773Z,9.40
2024-01-31T05:47:13.480Z,8.20
2024-01-31T05:49:40.326Z,10.07
2024-01-31T05:52:07.094Z,9.32
2024-01-31T05:54:34.024Z,10.45
2024-01-31T05:57:00.668Z,12.52
2024-01-31T05:59:27.369Z,12.10
2024-01-31T06:01:54.152Z,7.15
2024-01-31T06:04:20.933Z,8.98
2024-01-31T06:06:47.820Z,11.52
2024-01-31T06:09:14.823Z,8.00
2024-01-31T06:11:41.692Z,10.80
2024-01-31T06:14:08.426Z,10.93
2024-01-31T06:16:35.169Z,8.73
2024-01-31T06:19:03.132Z,10.10
2024-01-31T06:21:29.880Z,9.32
2024-01-31T06:23:56.921Z,5.93
2024-01-31T06:26:24.182Z,9.73
2024-01-31T06:28:51.008Z,9.60
2024-01-31T06:31:26.138Z,11.43
2024-01-31T06:33:53.135Z,10.27
2024-01-31T06:36:23.124Z,9.65
2024-01-31T06:38:49.961Z,11.93
2024-01-31T06:41:17.740Z,7.80
2024-01-31T06:43:44.632Z,10.63
2024-01-31T06:46:14.924Z,10.93
2024-01-31T06:48:41.725Z,10.57
2024-01-31T06:51:09.186Z,12.32
2024-01-31T06:53:35.867Z,11.02
2024-01-31T06:56:03.116Z,8.43
2024-01-31T06:58:30.206Z,11.93
2024-01-31T07:01:01.342Z,13.60
2024-01-31T07:03:28.282Z,7.93
2024-01-31T07:05:55.054Z,14.32
2024-01-31T07:08:21.784Z,12.50
2024-01-31T07:10:48.578Z,10.40
2024-01-31T07:13:15.318Z,8.20
2024-01-31T07:15:42.013Z,17.92
2024-01-31T07:18:08.991Z,15.98
2024-01-31T07:20:36.026Z,18.23
2024-01-31T07:23:02.780Z,9.32
2024-01-31T07:25:29.431Z,14.00
2024-01-31T07:27:56.060Z,10.60
2024-01-31T07:30:22.774Z,11.75
2024-01-31T07:32:49.535Z,14.77
2024-01-31T07:35:16.319Z,10.18
2024-01-31T07:37:43.249Z,11.65
2024-01-31T07:40:13.216Z,10.80
2024-01-31T07:42:39.953Z,17.00
2024-01-31T07:45:07.097Z,18.52
2024-01-31T07:47:33.953Z,13.50
2024-01-31T07:50:00.804Z,10.88
2024-01-31T07:52:27.595Z,10.13
2024-01-31T07:54:54.287Z,13.13
2024-01-31T07:57:20.963Z,11.73
2024-01-31T07:59:47.710Z,14.55
2024-01-31T08:02:14.513Z,13.20
2024-01-31T08:04:41.233Z,16.17
2024-01-31T08:07:08.012Z,12.63
2024-01-31T08:09:34.801Z,14.52
2024-01-31T08:12:01.883Z,10.40
2024-01-31T08:14:28.660Z,15.25
2024-01-31T08:16:55.460Z,26.10
2024-01-31T08:19:22.334Z,13.07
2024-01-31T08:21:49.318Z,11.43
2024-01-31T08:24:16.542Z,15.43
2024-01-31T08:26:43.261Z,15.93
2024-01-31T08:29:15.875Z,12.63
2024-01-31T08:31:50.010Z,14.98
2024-01-31T08:34:17.499Z,10.23
2024-01-31T08:36:44.419Z,12.65
2024-01-31T08:39:11.073Z,13.45
2024-01-31T08:41:37.816Z,12.57
2024-01-31T08:44:04.832Z,15.00
2024-01-31T08:46:34.171Z,10.23
2024-01-31T08:49:03.802Z,12.27
2024-01-31T08:51:31.907Z,17.10
2024-01-31T08:53:58.579Z,13.98
2024-01-31T08:56:25.396Z,15.40
2024-01-31T08:58:52.251Z,11.05
2024-01-31T09:01:19.298Z,12.85
2024-01-31T09:03:46.203Z,15.68
2024-01-31T09:06:12.962Z,18.20
2024-01-31T09:08:40.565Z,12.55
2024-01-31T09:11:07.254Z,14.57
2024-01-31T09:13:33.967Z,16.08
2024-01-31T09:16:01.456Z,15.68
2024-01-31T09:18:28.274Z,10.80
2024-01-31T09:20:55.127Z,14.10
2024-01-31T09:23:22.630Z,18.50
2024-01-31T09:25:50.905Z,13.77
2024-01-31T09:28:17.703Z,14.50
2024-01-31T09:30:45.341Z,11.63
2024-01-31T09:33:12.012Z,16.38
2024-01-31T09:35:40.600Z,19.33
2024-01-31T09:38:07.298Z,18.48
2024-01-31T09:40:34.135Z,14.15
2024-01-31T09:43:00.904Z,16.42
2024-01-31T09:45:29.582Z,18.38
2024-01-31T09:47:59.030Z,13.95
2024-01-31T09:50:25.940Z,18.17
2024-01-31T09:52:56.030Z,11.88
2024-01-31T09:55:27.536Z,13.57
2024-01-31T09:57:54.568Z,13.40
2024-01-31T10:00:21.296Z,16.65
2024-01-31T10:02:51.101Z,15.95
2024-01-31T10:05:18.500Z,18.27
2024-01-31T10:07:45.277Z,17.13
2024-01-31T10:10:12.395Z,18.67
2024-01-31T10:12:39.873Z,17.20
2024-01-31T10:15:10.841Z,16.50
2024-01-31T10:17:37.727Z,18.45
2024-01-31T10:20:08.906Z,11.75
2024-01-31T10:22:36.140Z,18.17
2024-01-31T10:25:05.800Z,17.17
2024-01-31T10:27:36.115Z,20.20
2024-01-31T10:30:09.234Z,22.58
2024-01-31T10:32:37.245Z,15.80
2024-01-31T10:35:25.979Z,18.92
2024-01-31T10:37:56.526Z,16.98
2024-01-31T10:40:28.976Z,14.40
2024-01-31T10:42:57.168Z,12.88
2024-01-31T10:45:24.382Z,16.75
2024-01-31T10:47:51.297Z,17.98
2024-01-31T10:50:18.355Z,17.77
2024-01-31T10:52:45.549Z,17.83
2024-01-31T10:55:13.114Z,16.30
2024-01-31T10:57:40.725Z,16.30
2024-01-31T11:00:10.639Z,17.02
2024-01-31T11:02:37.702Z,18.83
2024-01-31T11:05:05.636Z,17.08
2024-01-31T11:07:32.728Z,13.38
2024-01-31T11:09:59.546Z,15.25
2024-01-31T11:12:30.051Z,15.02
2024-01-31T11:14:59.119Z,11.68
2024-01-31T11:17:28.220Z,9.98
2024-01-31T11:19:59.460Z,11.73
2024-01-31T11:22:26.494Z,13.15
2024-01-31T11:24:54.817Z,13.93
2024-01-31T11:27:22.218Z,12.43
2024-01-31T11:29:52.945Z,12.95
2024-01-31T11:32:21.785Z,13.95
2024-01-31T11:35:01.447Z,13.55
2024-01-31T11:37:29.152Z,15.65
2024-01-31T11:39:55.790Z,9.45
2024-01-31T11:42:22.683Z,13.10
2024-01-31T11:44:49.767Z,10.27
2024-01-31T11:47:16.961Z,11.68
2024-01-31T11:49:43.792Z,10.93
2024-01-31T11:52:10.499Z,9.70
2024-01-31T11:54:37.220Z,10.82
2024-01-31T11:57:04.352Z,9.10
2024-01-31T11:59:31.274Z,9.98
2024-01-31T12:01:58.398Z,6.90
2024-01-31T12:04:25.471Z,8.25
2024-01-31T12:07:03.350Z,15.57
2024-01-31T12:09:30.311Z,12.60
2024-01-31T12:11:57.066Z,14.32
2024-01-31T12:14:24.241Z,10.77
2024-01-31T12:16:51.161Z,11.00
2024-01-31T12:19:20.998Z,11.07
2024-01-31T12:21:47.766Z,12.55
2024-01-31T12:24:14.669Z,9.63
2024-01-31T12:26:41.572Z,8.10
2024-01-31T12:29:08.674Z,6.93
2024-01-31T12:31:35.477Z,9.48
2024-01-31T12:34:03.472Z,5.93
2024-01-31T12:36:30.298Z,8.32
2024-01-31T12:38:57.174Z,6.10
2024-01-31T12:41:24.256Z,9.25
2024-01-31T12:43:51.646Z,8.02
2024-01-31T12:46:19.093Z,5.38
2024-01-31T12:48:45.866Z,9.43
2024-01-31T12:51:13.909Z,5.68
2024-01-31T12:53:40.682Z,6.22
2024-01-31T12:56:07.541Z,6.20
2024-01-31T12:58:34.177Z,6.05
2024-01-31T13:01:01.470Z,5.93
2024-01-31T13:03:28.276Z,6.30
2024-01-31T13:05:55.471Z,7.88
2024-01-31T13:08:23.180Z,9.82
2024-01-31T13:10:50.281Z,5.53
2024-01-31T13:13:16.967Z,5.95
2024-01-31T13:15:43.788Z,7.63
2024-01-31T13:18:10.566Z,7.22
2024-01-31T13:20:37.613Z,4.55
2024-01-31T13:23:04.572Z,6.20
2024-01-31T13:25:31.279Z,6.05
2024-01-31T13:31:55.304Z,5.45
2024-01-31T13:34:22.318Z,6.18
2024-01-31T13:36:48.953Z,5.03
2024-01-31T13:39:16.295Z,4.15
2024-01-31T13:41:43.405Z,4.65
2024-01-31T13:44:10.293Z,3.10
2024-01-31T13:46:40.046Z,4.35
2024-01-31T13:49:07.761Z,4.45
2024-01-31T13:51:36.563Z,16.33
2024-01-31T13:56:29.631Z,119.50
2024-01-31T13:58:56.289Z,197.40
2024-01-31T14:01:22.813Z,184.50
2024-01-31T14:03:49.424Z,109.50
2024-01-31T14:06:16.205Z,44.90
2024-01-31T14:08:42.916Z,43.83
2024-01-31T14:11:09.576Z,14.05
2024-01-31T14:13:36.181Z,8.85
2024-01-31T14:16:03.205Z,6.35
2024-01-31T14:18:29.963Z,6.97
2024-01-31T14:20:56.577Z,5.65
2024-01-31T14:23:41.074Z,2.65
2024-01-31T14:26:09.789Z,4.63
2024-01-31T14:28:39.190Z,4.05
2024-01-31T14:31:11.318Z,3.45
2024-01-31T14:33:38.440Z,4.95
2024-01-31T14:36:06.210Z,5.63
2024-01-31T14:38:33.549Z,3.38
2024-01-31T14:41:02.885Z,6.80
2024-01-31T14:43:29.731Z,6.35
2024-01-31T14:45:56.284Z,4.95
2024-01-31T14:48:23.390Z,7.70
2024-01-31T14:50:50.119Z,5.40
2024-01-31T14:53:16.658Z,7.93
2024-01-31T14:55:43.237Z,7.15
2024-01-31T14:58:10.014Z,7.88
2024-01-31T15:00:36.828Z,5.82
2024-01-31T15:03:03.462Z,9.38
2024-01-31T15:05:30.310Z,4.38
2024-01-31T15:07:56.994Z,7.57
2024-01-31T15:10:23.614Z,3.72
2024-01-31T15:12:53.237Z,8.40
2024-01-31T15:15:20.844Z,5.88
2024-01-31T15:17:48.011Z,5.30
2024-01-31T15:20:16.184Z,5.05
2024-01-31T15:22:43.860Z,8.60
2024-01-31T15:25:10.387Z,7.10
2024-01-31T15:27:38.437Z,8.30
2024-01-31T15:30:07.279Z,8.48
2024-01-31T15:35:00.530Z,9.90
2024-01-31T15:37:27.071Z,7.00
2024-01-31T15:39:53.616Z,8.05
2024-01-31T15:42:20.216Z,9.88
2024-01-31T15:44:46.831Z,12.10
2024-01-31T15:47:17.472Z,8.95
2024-01-31T15:49:45.973Z,5.45
2024-01-31T15:52:12.625Z,9.32
2024-01-31T15:54:39.197Z,10.40
2024-01-31T15:57:06.266Z,10.05
2024-01-31T15:59:34.172Z,16.23
2024-01-31T16:02:00.898Z,12.27
2024-01-31T16:04:27.468Z,10.73
2024-01-31T16:06:55.322Z,13.57
2024-01-31T16:09:22.670Z,15.10
2024-01-31T16:11:50.052Z,15.65
2024-01-31T16:14:16.909Z,21.52
2024-01-31T16:16:43.793Z,22.70
2024-01-31T16:19:11.048Z,23.20
2024-01-31T16:21:46.745Z,19.45
2024-01-31T16:24:14.494Z,19.65
2024-01-31T16:26:41.301Z,20.08
2024-01-31T16:29:08.305Z,21.40
2024-01-31T16:31:34.990Z,18.00
2024-01-31T16:34:02.406Z,19.88
2024-01-31T16:36:29.097Z,15.70
2024-01-31T16:38:55.853Z,18.55
2024-01-31T16:41:24.974Z,22.40
2024-01-31T16:43:52.716Z,20.77
2024-01-31T16:46:21.495Z,27.90
2024-01-31T16:51:24.686Z,27.83
2024-01-31T16:53:51.780Z,32.55
2024-01-31T16:56:19.055Z,22.73
2024-01-31T16:58:45.660Z,31.45
2024-01-31T17:01:12.438Z,27.52
2024-01-31T17:03:40.246Z,19.63
2024-01-31T17:06:07.274Z,25.25
2024-01-31T17:08:34.115Z,23.25
2024-01-31T17:11:01.486Z,27.58
2024-01-31T17:13:28.090Z,28.60
2024-01-31T17:15:55.162Z,19.75
2024-01-31T17:18:22.484Z,27.30
2024-01-31T17:20:49.838Z,23.92
2024-01-31T17:23:17.007Z,31.77
2024-01-31T17:25:44.621Z,27.08
2024-01-31T17:28:11.752Z,34.58
2024-01-31T17:30:41.805Z,41.03
2024-01-31T17:33:10.439Z,23.55
2024-01-31T17:35:38.048Z,27.27
2024-01-31T17:38:04.839Z,32.22
2024-01-31T17:40:32.698Z,55.30
2024-01-31T17:42:59.424Z,59.90
2024-01-31T17:45:26.072Z,38.58
2024-01-31T17:47:56.292Z,61.83
2024-01-31T17:50:23.217Z,30.00
2024-01-31T17:52:49.841Z,31.55
2024-01-31T17:55:16.691Z,27.63
2024-01-31T17:57:43.425Z,34.33
2024-01-31T18:00:11.186Z,28.73
2024-01-31T18:02:38.010Z,39.30
2024-01-31T18:05:04.981Z,33.35
2024-01-31T18:07:31.505Z,40.67
2024-01-31T18:09:58.176Z,28.30
2024-01-31T18:12:28.376Z,27.70
2024-01-31T18:14:56.095Z,29.00
2024-01-31T18:17:22.875Z,27.58
2024-01-31T18:19:49.637Z,24.23
2024-01-31T18:22:19.441Z,27.50
2024-01-31T18:24:45.982Z,26.90
2024-01-31T18:27:12.794Z,28.80
2024-01-31T18:29:39.582Z,26.23
2024-01-31T18:32:06.445Z,31.67
2024-01-31T18:34:34.118Z,29.25
2024-01-31T18:37:00.921Z,33.65
2024-01-31T18:39:28.482Z,33.00
2024-01-31T18:41:55.593Z,33.35
2024-01-31T18:44:22.453Z,37.60
2024-01-31T18:46:49.047Z,30.00
2024-01-31T18:49:19.057Z,30.75
2024-01-31T18:51:45.877Z,36.00
2024-01-31T18:54:12.613Z,37.17
2024-01-31T18:56:40.090Z,33.58
2024-01-31T18:59:07.541Z,39.00
2024-01-31T19:01:34.668Z,32.60
2024-01-31T19:04:01.796Z,22.90
2024-01-31T19:06:28.544Z,32.35
2024-01-31T19:08:56.287Z,26.80
2024-01-31T19:11:23.664Z,31.10
2024-01-31T19:13:57.996Z,35.78
2024-01-31T19:16:25.482Z,33.15
2024-01-31T19:18:52.690Z,25.80
2024-01-31T19:21:20.364Z,33.70
2024-01-31T19:23:50.494Z,44.92
2024-01-31T19:26:21.165Z,27.65
2024-01-31T19:28:47.679Z,22.52
2024-01-31T19:31:15.596Z,28.40
2024-01-31T19:33:42.214Z,31.50
2024-01-31T19:36:08.915Z,30.65
2024-01-31T19:38:37.027Z,34.30
2024-01-31T19:41:03.630Z,30.20
2024-01-31T19:43:30.124Z,25.38
2024-01-31T19:45:56.720Z,27.77
2024-01-31T19:48:23.331Z,25.35
2024-01-31T19:50:50.320Z,27.75
2024-01-31T19:53:16.917Z,24.58
2024-01-31T19:55:43.458Z,30.23
2024-01-31T19:58:10.044Z,29.17
2024-01-31T20:00:36.780Z,26.10
2024-01-31T20:03:04.377Z,29.73
2024-01-31T20:05:31.354Z,25.70
2024-01-31T20:07:58.874Z,32.63
2024-01-31T20:10:27.223Z,27.75
2024-01-31T20:12:56.609Z,30.08
2024-01-31T20:15:23.750Z,33.10
2024-01-31T20:17:50.523Z,26.75
2024-01-31T20:20:17.317Z,32.17
2024-01-31T20:22:44.153Z,31.85
2024-01-31T20:25:10.700Z,31.55
2024-01-31T20:27:37.232Z,28.55
2024-01-31T20:30:04.494Z,31.08
2024-01-31T20:32:31.325Z,35.45
2024-01-31T20:34:58.415Z,33.22
2024-01-31T20:37:25.943Z,30.48
2024-01-31T20:39:52.633Z,37.58
2024-01-31T20:42:19.294Z,49.97
2024-01-31T20:44:45.972Z,35.17
2024-01-31T20:47:12.494Z,54.78
2024-01-31T20:49:40.354Z,49.00
2024-01-31T20:52:08.429Z,47.85
2024-01-31T20:54:34.950Z,52.20
2024-01-31T20:57:01.594Z,53.90
2024-01-31T20:59:28.272Z,55.05
2024-01-31T21:01:55.116Z,42.85
2024-01-31T21:04:22.066Z,37.55
2024-01-31T21:06:48.927Z,40.55
2024-01-31T21:09:15.905Z,49.05
2024-01-31T21:11:43.411Z,34.10
2024-01-31T21:14:10.271Z,52.10
2024-01-31T21:16:40.809Z,47.00
2024-01-31T21:19:07.457Z,44.80
2024-01-31T21:21:34.078Z,42.33
2024-01-31T21:24:00.739Z,42.15
2024-01-31T21:26:28.156Z,127.57
2024-01-31T21:28:54.718Z,34.35
2024-01-31T21:31:21.220Z,42.13
2024-01-31T21:33:47.978Z,42.35
2024-01-31T21:36:14.811Z,41.53
2024-01-31T21:38:41.421Z,41.30
2024-01-31T21:41:08.696Z,45.92
2024-01-31T21:43:36.521Z,46.85
2024-01-31T21:46:03.303Z,39.27
2024-01-31T21:48:31.126Z,42.35
2024-01-31T21:50:58.186Z,47.50
2024-01-31T21:53:24.754Z,49.13
2024-01-31T21:55:51.397Z,51.28
2024-01-31T21:58:18.030Z,50.92
2024-01-31T22:00:44.746Z,51.50
2024-01-31T22:03:11.483Z,53.40
2024-01-31T22:05:38.819Z,57.47
2024-01-31T22:08:06.022Z,65.40
2024-01-31T22:10:32.934Z,59.95
2024-01-31T22:12:59.646Z,58.80
2024-01-31T22:15:26.458Z,61.95
2024-01-31T22:17:53.284Z,49.78
2024-01-31T22:20:20.881Z,64.45
2024-01-31T22:22:48.249Z,55.63
2024-01-31T22:25:15.476Z,63.42
2024-01-31T22:27:42.922Z,55.53
2024-01-31T22:30:10.391Z,56.03
2024-01-31T22:32:41.494Z,65.30
2024-01-31T22:35:09.709Z,62.55
2024-01-31T22:37:36.402Z,58.05
2024-01-31T22:40:03.295Z,54.65
2024-01-31T22:42:29.997Z,61.92
2024-01-31T22:44:56.683Z,66.18
2024-01-31T22:47:23.332Z,61.17
2024-01-31T22:49:50.178Z,61.90
2024-01-31T22:52:16.965Z,65.13
2024-01-31T22:54:50.580Z,58.58
2024-01-31T22:57:21.229Z,68.30
2024-01-31T22:59:48.071Z,60.53
2024-01-31T23:02:15.155Z,56.63
2024-01-31T23:04:42.103Z,73.78
2024-01-31T23:07:08.833Z,49.30
2024-01-31T23:09:35.615Z,58.10
2024-01-31T23:12:02.720Z,49.38
2024-01-31T23:14:29.965Z,49.20
2024-01-31T23:16:56.655Z,57.53
2024-01-31T23:19:24.184Z,48.38
2024-01-31T23:21:50.950Z,52.03
2024-01-31T23:24:17.831Z,41.53
2024-01-31T23:26:44.616Z,37.72
2024-01-31T23:29:12.341Z,46.38
2024-01-31T23:31:39.060Z,43.60
2024-01-31T23:34:06.051Z,52.28
2024-01-31T23:36:32.763Z,45.65
2024-01-31T23:38:59.602Z,53.40
2024-01-31T23:41:26.708Z,45.83
2024-01-31T23:43:53.350Z,49.60
2024-01-31T23:46:21.077Z,52.53
2024-01-31T23:48:48.369Z,59.60
2024-01-31T23:51:15.235Z,49.45
2024-01-31T23:53:42.039Z,50.92
2024-01-31T23:56:08.864Z,45.30
2024-01-31T23:58:35.892Z,48.60
